createdAt,value
2023-04-09T00:01:41.958Z,96.40
2023-04-09T00:04:29.576Z,95.40
2023-04-09T00:07:17.141Z,94.80
2023-04-09T00:10:05.742Z,94.00
2023-04-09T00:12:54.258Z,94.80
2023-04-09T00:15:42.510Z,94.70
2023-04-09T00:18:29.833Z,93.70
2023-04-09T00:21:17.434Z,94.70
2023-04-09T00:24:05.167Z,94.10
2023-04-09T00:26:53.955Z,93.40
2023-04-09T00:29:42.948Z,94.30
2023-04-09T00:32:30.853Z,95.10
2023-04-09T00:35:18.063Z,94.20
2023-04-09T00:38:06.105Z,94.30
2023-04-09T00:40:53.776Z,94.40
2023-04-09T00:43:41.410Z,94.50
2023-04-09T00:46:31.112Z,94.80
2023-04-09T00:49:19.388Z,93.70
2023-04-09T00:52:07.130Z,93.50
2023-04-09T00:54:55.846Z,93.10
2023-04-09T00:57:44.033Z,94.00
2023-04-09T01:00:31.666Z,93.60
2023-04-09T01:03:20.345Z,94.20
2023-04-09T01:06:15.855Z,95.10
2023-04-09T01:09:08.007Z,95.40
2023-04-09T01:12:07.005Z,95.20
2023-04-09T01:15:03.685Z,94.60
2023-04-09T01:18:00.880Z,94.90
2023-04-09T01:20:56.818Z,94.20
2023-04-09T01:23:51.639Z,94.80
2023-04-09T01:26:54.107Z,94.60
2023-04-09T01:29:48.832Z,94.70
2023-04-09T01:32:39.060Z,94.70
2023-04-09T01:35:27.836Z,95.50
2023-04-09T01:38:18.885Z,95.10
2023-04-09T01:41:08.605Z,95.60
2023-04-09T01:43:56.667Z,95.00
2023-04-09T01:46:47.746Z,95.10
2023-04-09T01:49:36.233Z,95.50
2023-04-09T01:52:23.637Z,95.70
2023-04-09T01:55:11.846Z,95.60
2023-04-09T01:57:59.286Z,95.50
2023-04-09T02:00:49.053Z,95.80
2023-04-09T02:03:44.534Z,95.70
2023-04-09T02:06:39.349Z,95.70
2023-04-09T02:09:30.998Z,96.40
2023-04-09T02:12:19.726Z,96.70
2023-04-09T02:15:08.920Z,96.40
2023-04-09T02:17:56.563Z,96.20
2023-04-09T02:20:46.041Z,96.70
2023-04-09T02:23:34.048Z,95.80
2023-04-09T02:26:21.442Z,96.20
2023-04-09T02:29:10.157Z,96.80
2023-04-09T02:31:57.413Z,95.30
2023-04-09T02:34:46.336Z,95.70
2023-04-09T02:37:34.929Z,96.40
2023-04-09T02:40:22.481Z,95.20
2023-04-09T02:43:10.529Z,95.60
2023-04-09T02:45:58.878Z,96.00
2023-04-09T02:48:46.634Z,96.60
2023-04-09T02:51:36.103Z,96.30
2023-04-09T02:54:24.645Z,95.90
2023-04-09T02:57:12.703Z,95.90
2023-04-09T02:59:59.967Z,96.50
2023-04-09T03:02:48.216Z,95.60
2023-04-09T03:05:36.291Z,95.30
2023-04-09T03:08:24.035Z,95.00
2023-04-09T03:11:12.750Z,95.10
2023-04-09T03:14:00.918Z,95.40
2023-04-09T03:16:48.465Z,96.60
2023-04-09T03:19:36.849Z,96.20
2023-04-09T03:22:24.870Z,95.60
2023-04-09T03:25:14.038Z,96.20
2023-04-09T03:28:03.302Z,96.80
2023-04-09T03:31:01.464Z,96.60
2023-04-09T03:33:49.706Z,96.40
2023-04-09T03:36:37.945Z,96.30
2023-04-09T03:39:31.355Z,96.50
2023-04-09T03:42:19.575Z,96.30
2023-04-09T03:45:10.846Z,95.30
2023-04-09T03:48:03.864Z,96.00
2023-04-09T03:50:53.526Z,96.20
2023-04-09T03:53:52.247Z,96.10
2023-04-09T03:56:39.961Z,96.00
2023-04-09T03:59:31.136Z,96.00
2023-04-09T04:02:19.769Z,97.00
2023-04-09T04:05:16.551Z,96.70
2023-04-09T04:08:08.199Z,97.00
2023-04-09T04:10:56.974Z,97.40
2023-04-09T04:13:44.112Z,96.20
2023-04-09T04:16:32.882Z,97.10
2023-04-09T04:19:23.313Z,96.70
2023-04-09T04:22:13.120Z,96.70
2023-04-09T04:25:04.783Z,96.60
2023-04-09T04:27:52.609Z,97.40
2023-04-09T04:30:43.085Z,97.80
2023-04-09T04:33:31.806Z,98.10
2023-04-09T04:36:21.500Z,98.30
2023-04-09T04:39:11.869Z,98.70
2023-04-09T04:42:20.827Z,98.70
2023-04-09T04:45:10.480Z,99.00
2023-04-09T04:48:08.319Z,99.10
2023-04-09T04:50:56.928Z,99.80
2023-04-09T04:53:47.237Z,99.60
2023-04-09T04:56:35.873Z,100.00
2023-04-09T04:59:30.801Z,100.00
2023-04-09T05:02:22.036Z,100.00
2023-04-09T05:05:22.722Z,100.00
2023-04-09T05:08:15.293Z,100.00
2023-04-09T05:11:04.858Z,100.00
2023-04-09T05:13:56.530Z,100.00
2023-04-09T05:16:44.966Z,100.00
2023-04-09T05:19:32.969Z,100.00
2023-04-09T05:22:24.052Z,99.90
2023-04-09T05:25:12.356Z,99.70
2023-04-09T05:28:03.361Z,99.10
2023-04-09T05:30:52.855Z,99.50
2023-04-09T05:33:40.243Z,99.50
2023-04-09T05:36:35.516Z,99.80
2023-04-09T05:39:23.694Z,99.90
2023-04-09T05:42:12.710Z,100.00
2023-04-09T05:45:12.510Z,99.40
2023-04-09T05:48:08.733Z,98.50
2023-04-09T05:50:56.134Z,98.90
2023-04-09T05:53:47.550Z,97.50
2023-04-09T05:56:35.707Z,96.30
2023-04-09T05:59:23.023Z,94.60
2023-04-09T06:02:12.490Z,92.90
2023-04-09T06:04:59.706Z,91.60
2023-04-09T06:07:47.951Z,91.10
2023-04-09T06:10:35.176Z,89.90
2023-04-09T06:13:23.440Z,89.40
2023-04-09T06:16:10.817Z,87.90
2023-04-09T06:19:00.211Z,87.90
2023-04-09T06:21:47.816Z,86.10
2023-04-09T06:24:34.900Z,84.70
2023-04-09T06:27:23.261Z,85.10
2023-04-09T06:30:11.471Z,83.90
2023-04-09T06:32:59.125Z,82.40
2023-04-09T06:35:48.609Z,80.90
2023-04-09T06:38:36.704Z,80.60
2023-04-09T06:41:24.465Z,78.20
2023-04-09T06:44:12.052Z,78.10
2023-04-09T06:46:59.399Z,77.10
2023-04-09T06:49:47.217Z,75.30
2023-04-09T06:52:36.476Z,74.00
2023-04-09T06:55:24.211Z,73.60
2023-04-09T06:58:11.860Z,72.20
2023-04-09T07:01:00.129Z,72.60
2023-04-09T07:03:47.371Z,73.60
2023-04-09T07:06:35.547Z,70.90
2023-04-09T07:09:26.282Z,70.00
2023-04-09T07:12:13.544Z,71.10
2023-04-09T07:15:01.985Z,68.40
2023-04-09T07:17:49.199Z,68.60
2023-04-09T07:20:36.847Z,68.60
2023-04-09T07:23:24.099Z,67.90
2023-04-09T07:26:13.678Z,65.70
2023-04-09T07:29:00.849Z,67.30
2023-04-09T07:31:48.145Z,67.60
2023-04-09T07:34:35.438Z,66.50
2023-04-09T07:37:23.719Z,63.50
2023-04-09T07:40:11.544Z,64.10
2023-04-09T07:43:01.066Z,62.10
2023-04-09T07:45:49.558Z,61.50
2023-04-09T07:48:37.099Z,62.10
2023-04-09T07:51:24.941Z,63.20
2023-04-09T07:54:12.685Z,61.00
2023-04-09T07:57:00.122Z,61.30
2023-04-09T07:59:49.130Z,60.10
2023-04-09T08:02:36.446Z,57.80
2023-04-09T08:05:24.518Z,61.90
2023-04-09T08:08:12.432Z,61.10
2023-04-09T08:11:00.189Z,60.40
2023-04-09T08:13:47.852Z,62.20
2023-04-09T08:16:37.297Z,62.90
2023-04-09T08:19:25.269Z,59.90
2023-04-09T08:22:12.430Z,59.20
2023-04-09T08:25:02.685Z,58.00
2023-04-09T08:27:50.741Z,58.00
2023-04-09T08:30:38.422Z,55.90
2023-04-09T08:33:27.463Z,55.60
2023-04-09T08:36:14.785Z,54.70
2023-04-09T08:39:02.971Z,58.40
2023-04-09T08:41:51.962Z,57.20
2023-04-09T08:44:40.070Z,57.40
2023-04-09T08:47:27.911Z,60.00
2023-04-09T08:50:17.661Z,60.10
2023-04-09T08:53:06.501Z,58.00
2023-04-09T08:55:54.101Z,55.80
2023-04-09T08:58:44.249Z,54.30
2023-04-09T09:01:32.667Z,59.10
2023-04-09T09:04:20.582Z,57.20
2023-04-09T09:07:09.748Z,57.20
2023-04-09T09:09:58.683Z,56.60
2023-04-09T09:12:46.303Z,55.60
2023-04-09T09:15:34.042Z,52.90
2023-04-09T09:18:21.911Z,53.10
2023-04-09T09:21:12.935Z,53.50
2023-04-09T09:24:01.820Z,55.90
2023-04-09T09:26:49.847Z,55.80
2023-04-09T09:29:41.978Z,57.20
2023-04-09T09:32:29.631Z,57.50
2023-04-09T09:35:17.275Z,58.50
2023-04-09T09:38:04.704Z,57.80
2023-04-09T09:40:54.178Z,59.70
2023-04-09T09:43:44.303Z,60.10
2023-04-09T09:46:34.593Z,60.40
2023-04-09T09:49:22.178Z,60.20
2023-04-09T09:52:10.861Z,59.00
2023-04-09T09:55:05.298Z,57.40
2023-04-09T09:57:56.962Z,56.90
2023-04-09T10:00:47.089Z,56.00
2023-04-09T10:03:38.120Z,55.20
2023-04-09T10:06:26.407Z,57.30
2023-04-09T10:09:14.610Z,55.80
2023-04-09T10:12:05.427Z,55.40
2023-04-09T10:14:58.878Z,53.80
2023-04-09T10:17:47.128Z,55.10
2023-04-09T10:20:41.076Z,56.80
2023-04-09T10:23:36.723Z,54.50
2023-04-09T10:26:30.849Z,54.10
2023-04-09T10:29:26.797Z,53.90
2023-04-09T10:32:21.070Z,54.50
2023-04-09T10:35:09.749Z,54.40
2023-04-09T10:38:00.925Z,54.80
2023-04-09T10:40:50.098Z,53.80
2023-04-09T10:43:37.932Z,52.70
2023-04-09T10:46:29.388Z,53.20
2023-04-09T10:49:19.102Z,52.40
2023-04-09T10:52:11.597Z,53.60
2023-04-09T10:54:59.756Z,53.70
2023-04-09T10:57:46.888Z,53.10
2023-04-09T11:00:39.133Z,53.40
2023-04-09T11:03:31.402Z,52.20
2023-04-09T11:06:21.601Z,53.40
2023-04-09T11:09:08.811Z,53.90
2023-04-09T11:11:57.749Z,54.00
2023-04-09T11:14:45.654Z,54.90
2023-04-09T11:17:36.461Z,54.40
2023-04-09T11:20:26.977Z,56.10
2023-04-09T11:23:17.440Z,53.80
2023-04-09T11:26:05.759Z,52.10
2023-04-09T11:28:57.030Z,52.90
2023-04-09T11:31:45.507Z,53.00
2023-04-09T11:34:33.676Z,52.70
2023-04-09T11:37:20.907Z,52.20
2023-04-09T11:40:16.226Z,51.50
2023-04-09T11:43:03.634Z,51.90
2023-04-09T11:45:51.964Z,51.60
2023-04-09T11:48:39.264Z,53.10
2023-04-09T11:51:27.865Z,53.00
2023-04-09T11:54:15.422Z,52.80
2023-04-09T11:57:05.881Z,52.40
2023-04-09T11:59:53.230Z,53.60
2023-04-09T12:02:43.284Z,55.30
2023-04-09T12:05:32.988Z,53.20
2023-04-09T12:08:25.238Z,53.60
2023-04-09T12:11:16.109Z,54.80
2023-04-09T12:14:06.121Z,54.30
2023-04-09T12:16:53.455Z,56.60
2023-04-09T12:19:41.857Z,54.90
2023-04-09T12:22:29.053Z,55.30
2023-04-09T12:25:17.417Z,56.80
2023-04-09T12:28:06.065Z,55.70
2023-04-09T12:30:55.664Z,55.80
2023-04-09T12:33:42.948Z,54.60
2023-04-09T12:36:31.069Z,54.50
2023-04-09T12:39:18.316Z,54.10
2023-04-09T12:42:06.617Z,55.00
2023-04-09T12:44:53.754Z,54.70
2023-04-09T12:47:43.622Z,54.00
2023-04-09T12:50:30.753Z,55.80
2023-04-09T12:53:18.884Z,55.30
2023-04-09T12:56:07.562Z,53.60
2023-04-09T12:58:55.314Z,52.50
2023-04-09T13:01:43.606Z,52.30
2023-04-09T13:04:33.227Z,49.90
2023-04-09T13:07:20.612Z,52.10
2023-04-09T13:10:09.414Z,53.10
2023-04-09T13:12:56.665Z,52.20
2023-04-09T13:15:45.464Z,50.60
2023-04-09T13:18:33.077Z,52.50
2023-04-09T13:21:22.228Z,53.80
2023-04-09T13:24:09.379Z,54.10
2023-04-09T13:26:58.015Z,53.90
2023-04-09T13:29:45.313Z,54.90
2023-04-09T13:32:33.340Z,55.40
2023-04-09T13:35:20.593Z,54.70
2023-04-09T13:38:09.983Z,56.70
2023-04-09T13:40:57.658Z,58.60
2023-04-09T13:43:45.088Z,59.40
2023-04-09T13:46:33.826Z,59.70
2023-04-09T13:49:21.061Z,59.10
2023-04-09T13:52:09.331Z,58.70
2023-04-09T13:54:58.387Z,59.50
2023-04-09T13:57:46.093Z,59.30
2023-04-09T14:00:34.860Z,59.90
2023-04-09T14:03:22.052Z,58.40
2023-04-09T14:06:10.527Z,59.10
2023-04-09T14:08:58.095Z,59.30
2023-04-09T14:11:46.630Z,58.10
2023-04-09T14:14:34.813Z,57.00
2023-04-09T14:17:21.958Z,56.00
2023-04-09T14:20:10.236Z,55.40
2023-04-09T14:22:57.523Z,57.20
2023-04-09T14:25:45.893Z,56.40
2023-04-09T14:28:34.400Z,55.80
2023-04-09T14:31:22.550Z,56.10
2023-04-09T14:34:10.636Z,56.40
2023-04-09T14:36:58.729Z,55.40
2023-04-09T14:39:46.052Z,57.20
2023-04-09T14:42:34.367Z,56.30
2023-04-09T14:45:23.679Z,54.50
2023-04-09T14:48:10.975Z,54.20
2023-04-09T14:50:59.115Z,54.70
2023-04-09T14:53:46.905Z,56.40
2023-04-09T14:56:34.163Z,58.40
2023-04-09T14:59:22.344Z,57.80
2023-04-09T15:02:11.690Z,54.90
2023-04-09T15:04:59.660Z,55.20
2023-04-09T15:07:47.516Z,51.80
2023-04-09T15:10:36.810Z,51.50
2023-04-09T15:13:24.264Z,53.40
2023-04-09T15:16:20.584Z,55.40
2023-04-09T15:19:09.739Z,56.60
2023-04-09T15:21:57.493Z,57.80
2023-04-09T15:24:45.373Z,57.70
2023-04-09T15:27:32.721Z,59.60
2023-04-09T15:30:20.841Z,57.90
2023-04-09T15:33:08.251Z,58.10
2023-04-09T15:35:58.924Z,58.40
2023-04-09T15:38:46.059Z,58.10
2023-04-09T15:41:34.709Z,58.50
2023-04-09T15:44:21.979Z,57.90
2023-04-09T15:47:10.102Z,57.80
2023-04-09T15:49:59.056Z,55.40
2023-04-09T15:52:49.239Z,55.90
2023-04-09T15:55:36.572Z,56.70
2023-04-09T15:58:24.806Z,56.30
2023-04-09T16:01:13.327Z,56.70
2023-04-09T16:04:00.799Z,57.10
2023-04-09T16:06:48.958Z,56.10
2023-04-09T16:09:37.542Z,55.70
2023-04-09T16:12:25.882Z,56.70
2023-04-09T16:15:13.148Z,56.10
2023-04-09T16:18:04.030Z,55.50
2023-04-09T16:20:54.364Z,56.10
2023-04-09T16:23:41.582Z,54.60
2023-04-09T16:26:31.208Z,55.20
2023-04-09T16:29:18.362Z,56.00
2023-04-09T16:32:06.700Z,56.10
2023-04-09T16:34:54.493Z,57.30
2023-04-09T16:37:41.731Z,56.80
2023-04-09T16:40:30.335Z,57.80
2023-04-09T16:43:18.834Z,57.90
2023-04-09T16:46:07.976Z,58.00
2023-04-09T16:48:56.043Z,57.80
2023-04-09T16:51:43.617Z,57.00
2023-04-09T16:54:31.840Z,58.00
2023-04-09T16:57:19.006Z,57.20
2023-04-09T17:00:09.923Z,56.60
2023-04-09T17:02:58.297Z,56.60
2023-04-09T17:05:49.432Z,56.30
2023-04-09T17:08:36.714Z,57.20
2023-04-09T17:11:24.774Z,57.50
2023-04-09T17:14:12.559Z,57.30
2023-04-09T17:17:01.253Z,57.50
2023-04-09T17:19:49.378Z,57.50
2023-04-09T17:22:36.772Z,58.10
2023-04-09T17:25:24.847Z,58.20
2023-04-09T17:28:12.121Z,58.60
2023-04-09T17:31:00.272Z,58.90
2023-04-09T17:33:49.310Z,58.60
2023-04-09T17:36:37.501Z,59.30
2023-04-09T17:39:24.861Z,59.60
2023-04-09T17:42:13.001Z,59.70
2023-04-09T17:45:00.268Z,59.80
2023-04-09T17:47:48.474Z,60.00
2023-04-09T17:50:38.992Z,60.70
2023-04-09T17:53:27.604Z,60.10
2023-04-09T17:56:16.767Z,60.40
2023-04-09T17:59:04.980Z,60.50
2023-04-09T18:01:55.434Z,61.10
2023-04-09T18:04:43.385Z,61.80
2023-04-09T18:07:34.098Z,61.50
2023-04-09T18:10:22.415Z,62.10
2023-04-09T18:13:10.231Z,62.40
2023-04-09T18:15:57.803Z,62.90
2023-04-09T18:18:46.074Z,63.60
2023-04-09T18:21:33.673Z,64.00
2023-04-09T18:24:23.249Z,63.80
2023-04-09T18:27:11.046Z,64.20
2023-04-09T18:29:59.226Z,65.00
2023-04-09T18:32:52.074Z,65.50
2023-04-09T18:35:39.770Z,65.20
2023-04-09T18:38:29.168Z,65.70
2023-04-09T18:41:23.143Z,66.20
2023-04-09T18:44:11.291Z,66.40
2023-04-09T18:46:59.620Z,66.40
2023-04-09T18:49:47.843Z,66.60
2023-04-09T18:52:38.653Z,66.80
2023-04-09T18:55:26.738Z,67.60
2023-04-09T18:58:16.603Z,67.70
2023-04-09T19:01:10.865Z,68.30
2023-04-09T19:03:58.207Z,68.50
2023-04-09T19:06:49.723Z,68.50
2023-04-09T19:09:37.348Z,68.70
2023-04-09T19:12:27.395Z,69.10
2023-04-09T19:15:16.626Z,69.20
2023-04-09T19:18:04.501Z,69.60
2023-04-09T19:20:52.176Z,69.50
2023-04-09T19:23:39.809Z,70.80
2023-04-09T19:26:27.502Z,70.20
2023-04-09T19:29:14.763Z,70.50
2023-04-09T19:32:04.116Z,70.90
2023-04-09T19:34:52.185Z,71.10
2023-04-09T19:37:40.225Z,71.70
2023-04-09T19:40:27.913Z,72.10
2023-04-09T19:43:15.556Z,72.20
2023-04-09T19:46:06.667Z,72.50
2023-04-09T19:48:56.601Z,73.40
2023-04-09T19:51:43.758Z,72.70
2023-04-09T19:54:31.237Z,73.40
2023-04-09T19:57:18.489Z,73.50
2023-04-09T20:00:07.240Z,74.10
2023-04-09T20:02:58.472Z,74.30
2023-04-09T20:05:47.816Z,75.00
2023-04-09T20:08:35.625Z,74.60
2023-04-09T20:11:22.937Z,75.30
2023-04-09T20:14:12.151Z,75.80
2023-04-09T20:16:59.416Z,75.60
2023-04-09T20:19:47.496Z,76.10
2023-04-09T20:22:36.406Z,76.50
2023-04-09T20:25:24.527Z,76.70
2023-04-09T20:28:11.708Z,77.00
2023-04-09T20:31:02.614Z,77.70
2023-04-09T20:33:49.845Z,78.10
2023-04-09T20:36:37.965Z,78.70
2023-04-09T20:39:26.907Z,79.10
2023-04-09T20:42:15.003Z,78.90
2023-04-09T20:45:02.627Z,78.60
2023-04-09T20:47:51.125Z,78.90
2023-04-09T20:50:38.193Z,79.30
2023-04-09T20:53:25.867Z,79.90
2023-04-09T20:56:15.583Z,80.10
2023-04-09T20:59:03.971Z,79.90
2023-04-09T21:01:51.719Z,79.80
2023-04-09T21:04:39.024Z,80.20
2023-04-09T21:07:27.057Z,80.00
2023-04-09T21:10:14.223Z,79.90
2023-04-09T21:13:03.672Z,79.90
2023-04-09T21:15:50.872Z,80.60
2023-04-09T21:18:38.880Z,81.30
2023-04-09T21:21:28.298Z,81.10
2023-04-09T21:24:16.804Z,81.30
2023-04-09T21:27:06.835Z,81.50
2023-04-09T21:29:56.451Z,81.50
2023-04-09T21:32:43.701Z,81.80
2023-04-09T21:35:32.103Z,82.10
2023-04-09T21:38:19.271Z,82.10
2023-04-09T21:41:08.233Z,81.70
2023-04-09T21:43:55.527Z,82.00
2023-04-09T21:46:45.006Z,82.20
2023-04-09T21:49:32.236Z,82.10
2023-04-09T21:52:19.539Z,81.90
2023-04-09T21:55:07.608Z,82.20
2023-04-09T21:57:56.393Z,81.70
2023-04-09T22:00:43.682Z,81.60
2023-04-09T22:03:33.446Z,82.00
2023-04-09T22:06:21.547Z,81.80
2023-04-09T22:09:09.432Z,81.70
2023-04-09T22:11:58.465Z,82.00
2023-04-09T22:14:46.617Z,82.70
2023-04-09T22:17:34.463Z,82.50
2023-04-09T22:20:24.493Z,82.20
2023-04-09T22:23:12.822Z,81.80
2023-04-09T22:26:00.967Z,81.90
2023-04-09T22:28:49.148Z,82.40
2023-04-09T22:31:36.475Z,82.00
2023-04-09T22:34:24.760Z,82.50
2023-04-09T22:37:13.288Z,82.50
2023-04-09T22:40:01.200Z,82.40
2023-04-09T22:42:48.775Z,82.40
2023-04-09T22:45:37.224Z,82.90
2023-04-09T22:48:24.415Z,83.10
2023-04-09T22:51:13.234Z,82.90
2023-04-09T22:54:02.180Z,83.00
2023-04-09T22:56:50.882Z,82.80
2023-04-09T22:59:40.690Z,82.80
2023-04-09T23:02:29.275Z,83.20
2023-04-09T23:05:17.808Z,82.60
2023-04-09T23:08:06.307Z,82.40
2023-04-09T23:10:56.411Z,82.00
2023-04-09T23:13:43.647Z,82.00
2023-04-09T23:16:31.848Z,82.30
2023-04-09T23:19:18.985Z,82.70
2023-04-09T23:22:07.374Z,83.40
2023-04-09T23:24:54.508Z,83.70
2023-04-09T23:27:44.473Z,83.60
2023-04-09T23:30:32.232Z,83.10
2023-04-09T23:33:20.926Z,83.10
2023-04-09T23:36:08.830Z,83.90
2023-04-09T23:38:56.507Z,83.20
2023-04-09T23:41:43.747Z,83.60
2023-04-09T23:44:33.587Z,83.40
2023-04-09T23:47:20.993Z,84.00
2023-04-09T23:50:09.932Z,83.80
2023-04-09T23:53:03.301Z,83.40
2023-04-09T23:55:53.108Z,84.10
2023-04-09T23:58:40.858Z,83.90
